createdAt,value
2022-08-13T09:02:21.124Z,26.43
2022-08-13T09:04:51.971Z,26.75
2022-08-13T09:06:56.961Z,26.90
2022-08-13T09:09:03.193Z,26.84
2022-08-13T09:11:06.765Z,27.00
2022-08-13T09:13:09.853Z,27.31
2022-08-13T09:15:14.251Z,27.49
2022-08-13T09:17:17.064Z,27.54
2022-08-13T09:19:21.931Z,27.78
2022-08-13T09:21:30.568Z,27.97
2022-08-13T09:23:45.816Z,27.88
2022-08-13T09:25:59.336Z,27.91
2022-08-13T09:28:12.863Z,27.34
2022-08-13T09:30:24.029Z,27.58
2022-08-13T09:32:32.125Z,27.37
2022-08-13T09:34:40.560Z,27.27
2022-08-13T09:36:45.207Z,27.48
2022-08-13T09:38:50.380Z,27.77
2022-08-13T09:41:11.503Z,28.03
2022-08-13T09:43:44.361Z,27.98
2022-08-13T09:45:47.332Z,28.30
2022-08-13T09:48:46.490Z,28.08
2022-08-13T09:50:12.203Z,28.05
2022-08-13T09:52:18.358Z,27.98
2022-08-13T09:54:27.705Z,28.03
2022-08-13T09:56:32.432Z,28.28
2022-08-13T09:58:42.349Z,28.73
2022-08-13T10:00:47.268Z,28.81
2022-08-13T10:02:53.681Z,28.58
2022-08-13T10:04:56.741Z,28.67
2022-08-13T10:07:01.308Z,28.75
2022-08-13T10:09:04.528Z,28.43
2022-08-13T10:11:09.793Z,28.77
2022-08-13T10:13:17.434Z,28.42
2022-08-13T10:15:24.474Z,28.85
2022-08-13T10:17:42.834Z,29.33
2022-08-13T10:19:50.678Z,29.50
2022-08-13T10:21:53.378Z,29.87
2022-08-13T10:23:55.643Z,29.84
2022-08-13T10:26:03.146Z,30.11
2022-08-13T10:28:15.231Z,30.25
2022-08-13T10:30:59.599Z,30.12
2022-08-13T10:32:59.995Z,29.92
2022-08-13T10:35:06.446Z,29.26
2022-08-13T10:37:11.116Z,29.20
2022-08-13T10:39:13.686Z,29.10
2022-08-13T10:41:16.614Z,28.91
2022-08-13T10:43:24.693Z,28.90
2022-08-13T10:45:29.214Z,29.15
2022-08-13T10:47:56.355Z,29.47
2022-08-13T10:50:04.718Z,29.60
2022-08-13T10:52:07.081Z,29.69
2022-08-13T10:54:17.870Z,30.02
2022-08-13T10:56:33.372Z,30.26
2022-08-13T10:58:45.955Z,30.32
2022-08-13T11:00:52.033Z,30.62
2022-08-13T11:02:57.317Z,31.02
2022-08-13T11:05:02.325Z,30.68
2022-08-13T11:07:07.323Z,30.80
2022-08-13T11:09:24.704Z,30.65
2022-08-13T11:11:52.923Z,30.27
2022-08-13T11:13:56.034Z,30.56
2022-08-13T11:15:59.908Z,30.70
2022-08-13T11:18:03.707Z,30.37
2022-08-13T11:20:17.881Z,30.63
2022-08-13T11:22:27.198Z,30.35
2022-08-13T11:24:37.169Z,30.42
2022-08-13T11:26:42.542Z,29.79
2022-08-13T11:28:46.287Z,30.04
2022-08-13T11:30:51.163Z,29.79
2022-08-13T11:32:53.859Z,29.89
2022-08-13T11:34:56.272Z,30.27
2022-08-13T11:36:58.629Z,30.00
2022-08-13T11:39:04.058Z,29.82
2022-08-13T11:41:06.512Z,30.09
2022-08-13T11:43:17.984Z,30.22
2022-08-13T11:45:20.808Z,30.12
2022-08-13T11:47:30.774Z,30.06
2022-08-13T11:49:34.799Z,29.74
2022-08-13T11:51:48.462Z,29.61
2022-08-13T11:54:00.335Z,29.44
2022-08-13T11:56:17.058Z,29.35
2022-08-13T11:58:46.702Z,28.88
2022-08-13T12:00:47.892Z,28.75
2022-08-13T12:02:55.549Z,28.76
2022-08-13T12:04:58.585Z,28.77
2022-08-13T12:07:00.896Z,28.58
2022-08-13T12:09:21.653Z,29.15
2022-08-13T12:11:31.491Z,28.97
2022-08-13T12:13:52.142Z,29.08
2022-08-13T12:16:11.561Z,28.99
2022-08-13T12:18:18.106Z,28.97
2022-08-13T12:20:28.478Z,29.06
2022-08-13T12:22:32.498Z,29.31
2022-08-13T12:24:35.447Z,29.44
2022-08-13T12:26:39.119Z,29.26
2022-08-13T12:28:41.968Z,29.39
2022-08-13T12:30:47.355Z,29.48
2022-08-13T12:32:50.590Z,29.29
2022-08-13T12:34:54.413Z,29.33
2022-08-13T12:36:56.869Z,29.42
2022-08-13T12:39:02.346Z,29.22
2022-08-13T12:41:14.043Z,28.87
2022-08-13T12:43:21.567Z,29.36
2022-08-13T12:45:56.349Z,29.11
2022-08-13T12:48:07.901Z,28.76
2022-08-13T12:50:10.140Z,29.17
2022-08-13T12:52:13.082Z,29.31
2022-08-13T12:54:40.052Z,29.23
2022-08-13T12:56:39.931Z,29.21
2022-08-13T12:58:43.959Z,29.30
2022-08-13T13:00:51.305Z,29.26
2022-08-13T13:02:54.025Z,29.02
2022-08-13T13:05:15.615Z,29.37
2022-08-13T13:07:18.495Z,29.18
2022-08-13T13:09:48.833Z,29.24
2022-08-13T13:11:52.696Z,29.52
2022-08-13T13:14:04.308Z,29.52
2022-08-13T13:16:34.319Z,29.59
2022-08-13T13:18:55.131Z,29.69
2022-08-13T13:21:02.235Z,29.96
2022-08-13T13:23:04.741Z,29.83
2022-08-13T13:25:07.521Z,29.98
2022-08-13T13:27:11.212Z,29.73
2022-08-13T13:29:16.668Z,30.24
2022-08-13T13:31:19.338Z,30.08
2022-08-13T13:33:34.227Z,30.12
2022-08-13T13:36:08.948Z,30.11
2022-08-13T13:38:10.737Z,30.20
2022-08-13T13:40:14.247Z,30.15
2022-08-13T13:42:17.608Z,30.49
2022-08-13T13:44:39.533Z,30.52
2022-08-13T13:46:42.951Z,30.47
2022-08-13T13:48:52.545Z,30.70
2022-08-13T13:50:58.934Z,30.64
2022-08-13T13:53:22.243Z,30.74
2022-08-13T13:55:24.746Z,31.13
2022-08-13T13:57:38.506Z,31.49
2022-08-13T13:59:57.699Z,30.57
2022-08-13T14:02:03.992Z,30.38
2022-08-13T14:04:07.130Z,30.49
2022-08-13T14:06:18.954Z,30.05
2022-08-13T14:08:21.839Z,30.28
2022-08-13T14:10:26.914Z,30.33
2022-08-13T14:12:49.317Z,30.27
2022-08-13T14:14:53.929Z,30.59
2022-08-13T14:16:56.492Z,30.40
2022-08-13T14:18:58.814Z,30.36
2022-08-13T14:21:03.740Z,30.69
2022-08-13T14:23:06.765Z,31.33
2022-08-13T14:25:22.496Z,31.22
2022-08-13T14:27:27.385Z,31.24
2022-08-13T14:29:33.938Z,30.96
2022-08-13T14:31:54.320Z,30.79
2022-08-13T14:33:58.636Z,30.80
2022-08-13T14:36:03.433Z,30.74
2022-08-13T14:38:08.973Z,30.58
2022-08-13T14:40:16.488Z,30.48
2022-08-13T14:43:16.267Z,30.60
2022-08-13T14:45:10.000Z,30.04
2022-08-13T14:47:14.568Z,30.35
2022-08-13T14:49:17.954Z,30.55
2022-08-13T14:51:21.423Z,30.69
2022-08-13T14:53:24.675Z,30.45
2022-08-13T14:55:30.186Z,30.56
2022-08-13T14:57:50.577Z,30.63
2022-08-13T14:59:54.873Z,30.74
2022-08-13T15:02:00.431Z,30.45
2022-08-13T15:04:07.126Z,30.51
2022-08-13T15:06:10.139Z,30.48
2022-08-13T15:08:29.645Z,30.65
2022-08-13T15:10:34.515Z,30.82
2022-08-13T15:12:41.213Z,30.71
2022-08-13T15:14:51.521Z,30.49
2022-08-13T15:16:56.265Z,30.24
2022-08-13T15:19:09.266Z,30.38
2022-08-13T15:21:12.297Z,30.24
2022-08-13T15:23:18.360Z,30.24
2022-08-13T15:25:42.478Z,30.25
2022-08-13T15:27:52.377Z,29.93
2022-08-13T15:29:55.768Z,30.15
2022-08-13T15:31:59.409Z,30.28
2022-08-13T15:34:02.482Z,30.10
2022-08-13T15:36:07.080Z,30.32
2022-08-13T15:38:18.563Z,30.17
2022-08-13T15:40:30.396Z,30.21
2022-08-13T15:42:34.891Z,30.23
2022-08-13T15:44:37.364Z,30.19
2022-08-13T15:46:47.444Z,30.21
2022-08-13T15:48:50.902Z,29.88
2022-08-13T15:50:56.214Z,30.03
2022-08-13T15:53:17.916Z,29.92
2022-08-13T15:55:21.292Z,29.98
2022-08-13T15:57:24.619Z,29.75
2022-08-13T15:59:31.141Z,29.66
2022-08-13T16:01:50.059Z,29.66
2022-08-13T16:03:57.125Z,29.90
2022-08-13T16:06:01.810Z,29.95
2022-08-13T16:08:09.764Z,29.87
2022-08-13T16:10:12.468Z,29.84
2022-08-13T16:12:20.375Z,29.95
2022-08-13T16:14:34.996Z,29.68
2022-08-13T16:16:37.867Z,29.88
2022-08-13T16:18:40.383Z,29.96
2022-08-13T16:20:44.642Z,30.08
2022-08-13T16:22:50.528Z,30.11
2022-08-13T16:24:59.649Z,30.13
2022-08-13T16:27:06.610Z,30.07
2022-08-13T16:29:11.516Z,29.90
2022-08-13T16:31:18.292Z,29.78
2022-08-13T16:33:20.823Z,29.75
2022-08-13T16:35:24.663Z,29.63
2022-08-13T16:37:48.400Z,29.59
2022-08-13T16:39:53.990Z,29.37
2022-08-13T16:41:56.634Z,29.32
2022-08-13T16:44:01.855Z,29.28
2022-08-13T16:46:05.678Z,29.11
2022-08-13T16:48:11.765Z,29.25
2022-08-13T16:50:16.255Z,29.26
2022-08-13T16:52:18.797Z,29.39
2022-08-13T16:54:37.498Z,29.33
2022-08-13T16:56:42.356Z,29.04
2022-08-13T16:58:55.191Z,28.96
2022-08-13T17:00:59.348Z,28.85
2022-08-13T17:03:33.384Z,28.95
2022-08-13T17:06:01.782Z,28.95
2022-08-13T17:08:34.112Z,29.10
2022-08-13T17:10:37.117Z,29.12
2022-08-13T17:12:42.276Z,29.10
2022-08-13T17:14:45.010Z,29.16
2022-08-13T17:16:59.090Z,29.04
2022-08-13T17:19:05.267Z,28.79
2022-08-13T17:21:48.047Z,28.90
2022-08-13T17:23:36.548Z,28.98
2022-08-13T17:25:39.551Z,28.80
2022-08-13T17:27:51.901Z,28.95
2022-08-13T17:30:04.437Z,28.91
2022-08-13T17:32:13.338Z,28.73
2022-08-13T17:34:16.178Z,28.70
2022-08-13T17:36:21.055Z,28.65
2022-08-13T17:38:44.111Z,28.18
2022-08-13T17:40:52.483Z,28.29
2022-08-13T17:44:09.302Z,28.42
2022-08-13T17:45:29.586Z,28.34
2022-08-13T17:48:00.623Z,28.21
2022-08-13T17:49:55.226Z,28.34
2022-08-13T17:51:57.639Z,28.28
2022-08-13T17:54:00.919Z,28.25
2022-08-13T17:56:03.651Z,28.47
2022-08-13T17:58:09.838Z,28.39
2022-08-13T18:00:16.771Z,28.27
2022-08-13T18:02:23.659Z,28.21
2022-08-13T18:04:37.052Z,28.19
2022-08-13T18:06:42.446Z,28.16
2022-08-13T18:08:45.058Z,28.07
2022-08-13T18:10:48.588Z,28.04
2022-08-13T18:12:51.295Z,28.14
2022-08-13T18:14:53.851Z,28.09
2022-08-13T18:17:04.574Z,27.98
2022-08-13T18:19:24.813Z,28.06
2022-08-13T18:21:44.259Z,28.03
2022-08-13T18:23:53.035Z,27.85
2022-08-13T18:25:56.132Z,27.77
2022-08-13T18:28:14.533Z,27.69
2022-08-13T18:30:29.289Z,27.74
2022-08-13T18:32:36.028Z,27.63
2022-08-13T18:34:51.981Z,27.51
2022-08-13T18:36:54.996Z,27.53
2022-08-13T18:38:57.492Z,27.60
2022-08-13T18:41:02.813Z,27.33
2022-08-13T18:43:05.251Z,27.49
2022-08-13T18:45:24.400Z,27.61
2022-08-13T18:47:33.103Z,27.60
2022-08-13T18:49:35.385Z,27.38
2022-08-13T18:51:41.611Z,27.05
2022-08-13T18:53:45.820Z,27.22
2022-08-13T18:55:55.345Z,27.18
2022-08-13T18:57:58.812Z,27.13
2022-08-13T19:00:03.529Z,27.12
2022-08-13T19:02:06.634Z,27.14
2022-08-13T19:04:10.456Z,27.05
2022-08-13T19:06:14.372Z,27.14
2022-08-13T19:08:22.544Z,26.94
2022-08-13T19:10:26.217Z,26.76
2022-08-13T19:12:37.456Z,26.82
2022-08-13T19:14:40.549Z,26.81
2022-08-13T19:16:56.679Z,26.75
2022-08-13T19:19:01.217Z,26.63
2022-08-13T19:21:50.711Z,26.89
2022-08-13T19:23:34.276Z,26.92
2022-08-13T19:25:37.342Z,26.80
2022-08-13T19:28:05.467Z,26.78
2022-08-13T19:30:10.942Z,26.52
2022-08-13T19:32:14.397Z,26.39
2022-08-13T19:34:29.796Z,26.48
2022-08-13T19:36:34.130Z,26.55
2022-08-13T19:39:01.194Z,26.33
2022-08-13T19:41:01.751Z,26.35
2022-08-13T19:43:06.627Z,26.33
2022-08-13T19:45:15.095Z,26.25
2022-08-13T19:47:20.783Z,26.36
2022-08-13T19:49:54.623Z,26.51
2022-08-13T19:52:01.480Z,26.37
2022-08-13T19:54:04.089Z,26.15
2022-08-13T19:56:08.097Z,26.11
2022-08-13T19:58:18.566Z,26.09
2022-08-13T20:00:22.280Z,25.99
2022-08-13T20:02:30.096Z,26.04
2022-08-13T20:04:39.389Z,26.23
2022-08-13T20:06:57.139Z,26.18
2022-08-13T20:09:01.388Z,26.11
2022-08-13T20:11:22.763Z,26.02
2022-08-13T20:13:26.561Z,25.89
2022-08-13T20:15:32.026Z,26.00
2022-08-13T20:17:56.516Z,25.90
2022-08-13T20:20:03.452Z,25.99
2022-08-13T20:22:06.686Z,26.00
2022-08-13T20:24:22.082Z,26.13
2022-08-13T20:26:35.804Z,26.06
2022-08-13T20:28:38.473Z,26.04
2022-08-13T20:30:42.599Z,25.92
2022-08-13T20:32:55.062Z,25.98
2022-08-13T20:34:58.754Z,26.08
2022-08-13T20:37:08.912Z,26.11
2022-08-13T20:39:41.041Z,25.91
2022-08-13T20:41:49.045Z,25.82
2022-08-13T20:43:58.669Z,25.84
2022-08-13T20:46:02.438Z,25.92
2022-08-13T20:48:06.349Z,26.00
2022-08-13T20:50:09.376Z,26.09
2022-08-13T20:52:13.055Z,26.12
2022-08-13T20:54:17.733Z,26.19
2022-08-13T20:56:41.241Z,26.17
2022-08-13T21:00:45.237Z,25.77
2022-08-13T21:01:17.364Z,25.86
2022-08-13T21:03:20.452Z,25.85
2022-08-13T21:05:24.126Z,26.11
2022-08-13T21:07:27.644Z,25.60
2022-08-13T21:09:46.285Z,25.46
2022-08-13T21:11:50.125Z,25.51
2022-08-13T21:13:52.933Z,25.33
2022-08-13T21:16:17.352Z,25.28
2022-08-13T21:18:17.599Z,25.43
2022-08-13T21:20:23.052Z,25.22
2022-08-13T21:22:29.832Z,25.09
2022-08-13T21:24:37.307Z,25.05
2022-08-13T21:26:43.698Z,25.08
2022-08-13T21:29:32.058Z,25.36
2022-08-13T21:32:08.087Z,25.42
2022-08-13T21:33:45.510Z,25.22
2022-08-13T21:35:51.653Z,25.03
2022-08-13T21:37:54.829Z,25.24
2022-08-13T21:39:58.577Z,25.09
2022-08-13T21:42:03.632Z,25.21
2022-08-13T21:44:06.301Z,25.14
2022-08-13T21:46:08.882Z,25.20
2022-08-13T21:48:11.234Z,25.16
2022-08-13T21:50:15.842Z,25.30
2022-08-13T21:52:18.588Z,25.33
2022-08-13T21:54:30.388Z,25.18
2022-08-13T21:56:33.805Z,25.29
2022-08-13T21:58:37.069Z,25.00
2022-08-13T22:00:48.191Z,25.08
2022-08-13T22:02:51.827Z,24.69
2022-08-13T22:04:54.963Z,24.65
2022-08-13T22:06:59.107Z,24.67
2022-08-13T22:09:05.915Z,24.41
2022-08-13T22:11:08.669Z,24.58
2022-08-13T22:13:14.066Z,24.86
2022-08-13T22:15:18.818Z,24.66
2022-08-13T22:17:22.476Z,24.58
